sensor_id;sensor_type;location;lat;lon;timestamp;P1;durP1;ratioP1;P2;durP2;ratioP2
3704;SDS011;1868;48.918;9.438;2023-01-06T00:01:23;14.57;;;6.23;;
3704;SDS011;1868;48.918;9.438;2023-01-06T00:03:52;11.87;;;6.73;;
3704;SDS011;1868;48.918;9.438;2023-01-06T00:06:23;11.47;;;6.00;;
3704;SDS011;1868;48.918;9.438;2023-01-06T00:08:55;11.77;;;5.50;;
3704;SDS011;1868;48.918;9.438;2023-01-06T00:11:25;13.23;;;6.87;;
3704;SDS011;1868;48.918;9.438;2023-01-06T00:13:54;16.27;;;7.00;;
3704;SDS011;1868;48.918;9.438;2023-01-06T00:16:22;16.07;;;5.90;;
3704;SDS011;1868;48.918;9.438;2023-01-06T00:18:52;13.10;;;5.87;;
3704;SDS011;1868;48.918;9.438;2023-01-06T00:21:22;6.77;;;5.00;;
3704;SDS011;1868;48.918;9.438;2023-01-06T00:23:50;10.00;;;5.90;;
3704;SDS011;1868;48.918;9.438;2023-01-06T00:26:21;14.97;;;6.70;;
3704;SDS011;1868;48.918;9.438;2023-01-06T00:28:51;10.00;;;5.73;;
3704;SDS011;1868;48.918;9.438;2023-01-06T00:31:20;8.60;;;5.37;;
3704;SDS011;1868;48.918;9.438;2023-01-06T00:33:49;9.63;;;5.90;;
3704;SDS011;1868;48.918;9.438;2023-01-06T00:36:18;11.47;;;5.33;;
3704;SDS011;1868;48.918;9.438;2023-01-06T00:38:47;10.40;;;5.20;;
3704;SDS011;1868;48.918;9.438;2023-01-06T00:41:17;9.83;;;5.57;;
3704;SDS011;1868;48.918;9.438;2023-01-06T00:44:05;9.80;;;5.87;;
3704;SDS011;1868;48.918;9.438;2023-01-06T00:46:34;14.77;;;5.80;;
3704;SDS011;1868;48.918;9.438;2023-01-06T00:49:02;15.00;;;7.63;;
3704;SDS011;1868;48.918;9.438;2023-01-06T00:51:33;10.77;;;5.57;;
3704;SDS011;1868;48.918;9.438;2023-01-06T00:54:04;8.47;;;5.63;;
3704;SDS011;1868;48.918;9.438;2023-01-06T00:56:34;8.80;;;5.43;;
3704;SDS011;1868;48.918;9.438;2023-01-06T00:59:07;12.13;;;6.23;;
3704;SDS011;1868;48.918;9.438;2023-01-06T01:01:37;13.43;;;6.33;;
3704;SDS011;1868;48.918;9.438;2023-01-06T01:04:06;7.80;;;5.30;;
3704;SDS011;1868;48.918;9.438;2023-01-06T01:06:35;9.30;;;5.90;;
3704;SDS011;1868;48.918;9.438;2023-01-06T01:09:05;13.90;;;7.80;;
3704;SDS011;1868;48.918;9.438;2023-01-06T01:11:34;14.13;;;5.70;;
3704;SDS011;1868;48.918;9.438;2023-01-06T01:14:21;10.10;;;5.80;;
3704;SDS011;1868;48.918;9.438;2023-01-06T01:16:49;10.47;;;5.30;;
3704;SDS011;1868;48.918;9.438;2023-01-06T01:19:19;9.93;;;6.80;;
3704;SDS011;1868;48.918;9.438;2023-01-06T01:21:50;11.43;;;6.67;;
3704;SDS011;1868;48.918;9.438;2023-01-06T01:24:19;13.47;;;6.73;;
3704;SDS011;1868;48.918;9.438;2023-01-06T01:26:48;10.03;;;6.47;;
3704;SDS011;1868;48.918;9.438;2023-01-06T01:29:17;9.67;;;5.60;;
3704;SDS011;1868;48.918;9.438;2023-01-06T01:31:52;12.33;;;5.53;;
3704;SDS011;1868;48.918;9.438;2023-01-06T01:34:20;14.93;;;5.23;;
3704;SDS011;1868;48.918;9.438;2023-01-06T01:36:50;7.43;;;5.57;;
3704;SDS011;1868;48.918;9.438;2023-01-06T01:39:22;9.30;;;6.50;;
3704;SDS011;1868;48.918;9.438;2023-01-06T01:41:53;7.93;;;5.53;;
3704;SDS011;1868;48.918;9.438;2023-01-06T01:47:29;7.67;;;4.60;;
3704;SDS011;1868;48.918;9.438;2023-01-06T01:50:36;8.10;;;5.00;;
3704;SDS011;1868;48.918;9.438;2023-01-06T01:53:12;7.17;;;4.83;;
3704;SDS011;1868;48.918;9.438;2023-01-06T01:55:45;9.43;;;4.90;;
3704;SDS011;1868;48.918;9.438;2023-01-06T01:58:21;7.53;;;5.50;;
3704;SDS011;1868;48.918;9.438;2023-01-06T02:00:54;9.40;;;4.80;;
3704;SDS011;1868;48.918;9.438;2023-01-06T02:03:26;6.80;;;4.50;;
3704;SDS011;1868;48.918;9.438;2023-01-06T02:05:58;10.03;;;5.00;;
3704;SDS011;1868;48.918;9.438;2023-01-06T02:08:32;8.50;;;4.70;;
3704;SDS011;1868;48.918;9.438;2023-01-06T02:11:05;6.90;;;4.83;;
3704;SDS011;1868;48.918;9.438;2023-01-06T02:13:34;7.67;;;4.93;;
3704;SDS011;1868;48.918;9.438;2023-01-06T02:16:11;8.70;;;5.10;;
3704;SDS011;1868;48.918;9.438;2023-01-06T02:18:51;8.13;;;4.90;;
3704;SDS011;1868;48.918;9.438;2023-01-06T02:21:29;5.47;;;4.20;;
3704;SDS011;1868;48.918;9.438;2023-01-06T02:24:19;5.07;;;4.30;;
3704;SDS011;1868;48.918;9.438;2023-01-06T02:27:27;9.40;;;4.73;;
3704;SDS011;1868;48.918;9.438;2023-01-06T02:33:33;9.37;;;5.77;;
3704;SDS011;1868;48.918;9.438;2023-01-06T02:36:14;6.50;;;4.00;;
3704;SDS011;1868;48.918;9.438;2023-01-06T02:38:55;8.97;;;5.13;;
3704;SDS011;1868;48.918;9.438;2023-01-06T02:41:40;5.27;;;4.60;;
3704;SDS011;1868;48.918;9.438;2023-01-06T02:44:14;6.17;;;4.97;;
3704;SDS011;1868;48.918;9.438;2023-01-06T02:46:55;7.57;;;4.10;;
3704;SDS011;1868;48.918;9.438;2023-01-06T02:49:45;7.73;;;4.97;;
3704;SDS011;1868;48.918;9.438;2023-01-06T02:52:23;10.33;;;4.80;;
3704;SDS011;1868;48.918;9.438;2023-01-06T02:55:02;9.60;;;5.03;;
3704;SDS011;1868;48.918;9.438;2023-01-06T02:57:36;7.33;;;4.47;;
3704;SDS011;1868;48.918;9.438;2023-01-06T03:00:13;5.90;;;4.40;;
3704;SDS011;1868;48.918;9.438;2023-01-06T03:02:48;8.70;;;3.90;;
3704;SDS011;1868;48.918;9.438;2023-01-06T03:05:24;8.20;;;4.77;;
3704;SDS011;1868;48.918;9.438;2023-01-06T03:07:54;8.23;;;5.00;;
3704;SDS011;1868;48.918;9.438;2023-01-06T03:10:24;12.67;;;5.10;;
3704;SDS011;1868;48.918;9.438;2023-01-06T03:12:55;6.80;;;4.30;;
3704;SDS011;1868;48.918;9.438;2023-01-06T03:15:31;6.90;;;4.90;;
3704;SDS011;1868;48.918;9.438;2023-01-06T03:18:00;8.43;;;4.43;;
3704;SDS011;1868;48.918;9.438;2023-01-06T03:20:31;5.20;;;4.00;;
3704;SDS011;1868;48.918;9.438;2023-01-06T03:22:59;8.30;;;4.70;;
3704;SDS011;1868;48.918;9.438;2023-01-06T03:25:28;6.43;;;4.07;;
3704;SDS011;1868;48.918;9.438;2023-01-06T03:27:58;6.03;;;4.33;;
3704;SDS011;1868;48.918;9.438;2023-01-06T03:30:39;5.23;;;4.73;;
3704;SDS011;1868;48.918;9.438;2023-01-06T03:33:12;7.67;;;4.60;;
3704;SDS011;1868;48.918;9.438;2023-01-06T03:35:54;11.73;;;4.57;;
3704;SDS011;1868;48.918;9.438;2023-01-06T03:38:38;6.57;;;4.40;;
3704;SDS011;1868;48.918;9.438;2023-01-06T03:41:18;6.20;;;4.27;;
3704;SDS011;1868;48.918;9.438;2023-01-06T03:44:14;6.10;;;4.10;;
3704;SDS011;1868;48.918;9.438;2023-01-06T03:46:53;8.63;;;5.40;;
3704;SDS011;1868;48.918;9.438;2023-01-06T03:49:28;8.70;;;4.33;;
3704;SDS011;1868;48.918;9.438;2023-01-06T03:52:04;4.47;;;3.77;;
3704;SDS011;1868;48.918;9.438;2023-01-06T03:54:39;10.33;;;3.83;;
3704;SDS011;1868;48.918;9.438;2023-01-06T03:57:19;3.87;;;3.57;;
3704;SDS011;1868;48.918;9.438;2023-01-06T03:59:53;7.97;;;3.93;;
3704;SDS011;1868;48.918;9.438;2023-01-06T04:02:24;6.73;;;3.97;;
3704;SDS011;1868;48.918;9.438;2023-01-06T04:05:07;7.53;;;3.20;;
3704;SDS011;1868;48.918;9.438;2023-01-06T04:07:43;8.30;;;4.20;;
3704;SDS011;1868;48.918;9.438;2023-01-06T04:10:15;6.23;;;3.80;;
3704;SDS011;1868;48.918;9.438;2023-01-06T04:12:48;8.30;;;3.83;;
3704;SDS011;1868;48.918;9.438;2023-01-06T04:15:20;4.17;;;3.77;;
3704;SDS011;1868;48.918;9.438;2023-01-06T04:17:53;6.83;;;4.00;;
3704;SDS011;1868;48.918;9.438;2023-01-06T04:20:23;7.30;;;3.90;;
3704;SDS011;1868;48.918;9.438;2023-01-06T04:23:09;6.93;;;3.80;;
3704;SDS011;1868;48.918;9.438;2023-01-06T04:25:39;4.97;;;2.80;;
3704;SDS011;1868;48.918;9.438;2023-01-06T04:28:18;3.67;;;3.10;;
3704;SDS011;1868;48.918;9.438;2023-01-06T04:30:49;5.53;;;3.20;;
3704;SDS011;1868;48.918;9.438;2023-01-06T04:33:17;5.70;;;4.00;;
3704;SDS011;1868;48.918;9.438;2023-01-06T04:35:48;6.37;;;3.80;;
3704;SDS011;1868;48.918;9.438;2023-01-06T04:38:20;5.90;;;4.13;;
3704;SDS011;1868;48.918;9.438;2023-01-06T04:40:48;8.90;;;4.90;;
3704;SDS011;1868;48.918;9.438;2023-01-06T04:43:17;6.60;;;4.37;;
3704;SDS011;1868;48.918;9.438;2023-01-06T04:45:45;8.43;;;4.37;;
3704;SDS011;1868;48.918;9.438;2023-01-06T04:48:13;7.17;;;3.73;;
3704;SDS011;1868;48.918;9.438;2023-01-06T04:50:42;8.70;;;3.97;;
3704;SDS011;1868;48.918;9.438;2023-01-06T04:53:10;5.90;;;3.87;;
3704;SDS011;1868;48.918;9.438;2023-01-06T04:55:41;6.07;;;3.60;;
3704;SDS011;1868;48.918;9.438;2023-01-06T04:58:09;5.30;;;3.30;;
3704;SDS011;1868;48.918;9.438;2023-01-06T05:00:37;4.50;;;3.43;;
3704;SDS011;1868;48.918;9.438;2023-01-06T05:03:05;7.83;;;4.50;;
3704;SDS011;1868;48.918;9.438;2023-01-06T05:05:34;7.93;;;3.67;;
3704;SDS011;1868;48.918;9.438;2023-01-06T05:08:02;10.07;;;4.20;;
3704;SDS011;1868;48.918;9.438;2023-01-06T05:10:30;5.30;;;3.30;;
3704;SDS011;1868;48.918;9.438;2023-01-06T05:13:00;4.13;;;3.37;;
3704;SDS011;1868;48.918;9.438;2023-01-06T05:15:29;5.63;;;3.10;;
3704;SDS011;1868;48.918;9.438;2023-01-06T05:17:57;3.40;;;3.10;;
3704;SDS011;1868;48.918;9.438;2023-01-06T05:20:25;3.20;;;2.90;;
3704;SDS011;1868;48.918;9.438;2023-01-06T05:22:53;3.30;;;3.00;;
3704;SDS011;1868;48.918;9.438;2023-01-06T05:25:22;4.13;;;3.27;;
3704;SDS011;1868;48.918;9.438;2023-01-06T05:27:50;7.00;;;3.37;;
3704;SDS011;1868;48.918;9.438;2023-01-06T05:30:20;7.73;;;3.60;;
3704;SDS011;1868;48.918;9.438;2023-01-06T05:32:48;7.43;;;3.00;;
3704;SDS011;1868;48.918;9.438;2023-01-06T05:35:16;4.63;;;3.03;;
3704;SDS011;1868;48.918;9.438;2023-01-06T05:37:45;3.90;;;2.87;;
3704;SDS011;1868;48.918;9.438;2023-01-06T05:40:14;3.50;;;3.20;;
3704;SDS011;1868;48.918;9.438;2023-01-06T05:42:42;4.40;;;2.70;;
3704;SDS011;1868;48.918;9.438;2023-01-06T05:45:11;3.90;;;3.60;;
3704;SDS011;1868;48.918;9.438;2023-01-06T05:47:40;3.90;;;2.80;;
3704;SDS011;1868;48.918;9.438;2023-01-06T05:50:09;5.03;;;3.83;;
3704;SDS011;1868;48.918;9.438;2023-01-06T05:52:37;3.10;;;2.73;;
3704;SDS011;1868;48.918;9.438;2023-01-06T05:55:06;4.80;;;2.83;;
3704;SDS011;1868;48.918;9.438;2023-01-06T05:57:35;2.73;;;2.53;;
3704;SDS011;1868;48.918;9.438;2023-01-06T06:00:05;3.13;;;2.83;;
3704;SDS011;1868;48.918;9.438;2023-01-06T06:02:37;2.90;;;2.60;;
3704;SDS011;1868;48.918;9.438;2023-01-06T06:05:08;5.23;;;2.90;;
3704;SDS011;1868;48.918;9.438;2023-01-06T06:07:36;3.07;;;2.87;;
3704;SDS011;1868;48.918;9.438;2023-01-06T06:10:05;4.20;;;3.40;;
3704;SDS011;1868;48.918;9.438;2023-01-06T06:12:35;2.87;;;2.67;;
3704;SDS011;1868;48.918;9.438;2023-01-06T06:15:03;4.10;;;2.63;;
3704;SDS011;1868;48.918;9.438;2023-01-06T06:17:32;2.73;;;2.53;;
3704;SDS011;1868;48.918;9.438;2023-01-06T06:20:01;5.70;;;3.60;;
3704;SDS011;1868;48.918;9.438;2023-01-06T06:22:31;3.03;;;2.70;;
3704;SDS011;1868;48.918;9.438;2023-01-06T06:24:59;2.53;;;2.33;;
3704;SDS011;1868;48.918;9.438;2023-01-06T06:27:28;2.57;;;2.37;;
3704;SDS011;1868;48.918;9.438;2023-01-06T06:29:56;4.93;;;2.73;;
3704;SDS011;1868;48.918;9.438;2023-01-06T06:32:35;4.60;;;2.90;;
3704;SDS011;1868;48.918;9.438;2023-01-06T06:35:04;3.07;;;2.87;;
3704;SDS011;1868;48.918;9.438;2023-01-06T06:37:35;6.50;;;3.37;;
3704;SDS011;1868;48.918;9.438;2023-01-06T06:40:03;3.53;;;3.23;;
3704;SDS011;1868;48.918;9.438;2023-01-06T06:42:33;2.80;;;2.60;;
3704;SDS011;1868;48.918;9.438;2023-01-06T06:45:02;3.43;;;3.13;;
3704;SDS011;1868;48.918;9.438;2023-01-06T06:47:53;4.50;;;2.93;;
3704;SDS011;1868;48.918;9.438;2023-01-06T06:50:21;3.47;;;3.10;;
3704;SDS011;1868;48.918;9.438;2023-01-06T06:52:51;5.83;;;3.30;;
3704;SDS011;1868;48.918;9.438;2023-01-06T07:12:57;3.70;;;2.60;;
3704;SDS011;1868;48.918;9.438;2023-01-06T07:15:30;2.27;;;2.17;;
3704;SDS011;1868;48.918;9.438;2023-01-06T07:18:53;2.90;;;2.30;;
3704;SDS011;1868;48.918;9.438;2023-01-06T07:21:21;2.20;;;2.00;;
3704;SDS011;1868;48.918;9.438;2023-01-06T07:23:49;3.23;;;2.40;;
3704;SDS011;1868;48.918;9.438;2023-01-06T07:26:20;2.80;;;2.07;;
3704;SDS011;1868;48.918;9.438;2023-01-06T07:28:49;2.20;;;2.00;;
3704;SDS011;1868;48.918;9.438;2023-01-06T07:31:26;2.40;;;2.17;;
3704;SDS011;1868;48.918;9.438;2023-01-06T07:33:57;2.23;;;2.03;;
3704;SDS011;1868;48.918;9.438;2023-01-06T07:39:30;3.37;;;2.60;;
3704;SDS011;1868;48.918;9.438;2023-01-06T07:41:58;2.10;;;1.43;;
3704;SDS011;1868;48.918;9.438;2023-01-06T07:44:28;2.60;;;1.70;;
3704;SDS011;1868;48.918;9.438;2023-01-06T07:46:56;4.03;;;1.50;;
3704;SDS011;1868;48.918;9.438;2023-01-06T07:49:24;2.33;;;1.90;;
3704;SDS011;1868;48.918;9.438;2023-01-06T07:51:53;1.67;;;1.57;;
3704;SDS011;1868;48.918;9.438;2023-01-06T07:54:21;1.50;;;1.40;;
3704;SDS011;1868;48.918;9.438;2023-01-06T07:56:50;1.60;;;1.50;;
3704;SDS011;1868;48.918;9.438;2023-01-06T07:59:20;4.47;;;1.93;;
3704;SDS011;1868;48.918;9.438;2023-01-06T08:01:49;2.77;;;2.30;;
3704;SDS011;1868;48.918;9.438;2023-01-06T08:04:18;2.07;;;1.97;;
3704;SDS011;1868;48.918;9.438;2023-01-06T08:06:46;2.60;;;2.50;;
3704;SDS011;1868;48.918;9.438;2023-01-06T08:09:14;2.37;;;1.87;;
3704;SDS011;1868;48.918;9.438;2023-01-06T08:11:43;2.20;;;2.00;;
3704;SDS011;1868;48.918;9.438;2023-01-06T08:14:11;1.97;;;1.60;;
3704;SDS011;1868;48.918;9.438;2023-01-06T08:16:42;1.03;;;1.03;;
3704;SDS011;1868;48.918;9.438;2023-01-06T08:19:12;1.83;;;1.07;;
3704;SDS011;1868;48.918;9.438;2023-01-06T08:21:40;2.60;;;0.73;;
3704;SDS011;1868;48.918;9.438;2023-01-06T08:24:09;2.80;;;1.20;;
3704;SDS011;1868;48.918;9.438;2023-01-06T08:26:37;1.87;;;0.70;;
3704;SDS011;1868;48.918;9.438;2023-01-06T08:29:06;1.80;;;1.00;;
3704;SDS011;1868;48.918;9.438;2023-01-06T08:31:34;0.60;;;0.50;;
3704;SDS011;1868;48.918;9.438;2023-01-06T08:34:03;4.00;;;0.63;;
3704;SDS011;1868;48.918;9.438;2023-01-06T08:36:32;0.50;;;0.50;;
3704;SDS011;1868;48.918;9.438;2023-01-06T08:39:00;0.73;;;0.53;;
3704;SDS011;1868;48.918;9.438;2023-01-06T08:41:29;1.27;;;0.90;;
3704;SDS011;1868;48.918;9.438;2023-01-06T08:43:57;1.43;;;0.83;;
3704;SDS011;1868;48.918;9.438;2023-01-06T08:46:26;0.93;;;0.60;;
3704;SDS011;1868;48.918;9.438;2023-01-06T08:48:54;0.70;;;0.60;;
3704;SDS011;1868;48.918;9.438;2023-01-06T09:00:06;0.70;;;0.43;;
3704;SDS011;1868;48.918;9.438;2023-01-06T09:02:36;0.67;;;0.50;;
3704;SDS011;1868;48.918;9.438;2023-01-06T09:05:05;3.03;;;1.30;;
3704;SDS011;1868;48.918;9.438;2023-01-06T09:07:34;1.00;;;1.00;;
3704;SDS011;1868;48.918;9.438;2023-01-06T09:10:03;2.10;;;0.60;;
3704;SDS011;1868;48.918;9.438;2023-01-06T09:12:32;1.17;;;1.10;;
3704;SDS011;1868;48.918;9.438;2023-01-06T09:15:01;1.10;;;1.10;;
3704;SDS011;1868;48.918;9.438;2023-01-06T09:17:31;1.40;;;1.30;;
3704;SDS011;1868;48.918;9.438;2023-01-06T09:19:59;3.13;;;0.90;;
3704;SDS011;1868;48.918;9.438;2023-01-06T09:22:28;0.60;;;0.60;;
3704;SDS011;1868;48.918;9.438;2023-01-06T09:24:56;0.80;;;0.60;;
3704;SDS011;1868;48.918;9.438;2023-01-06T09:27:25;0.60;;;0.60;;
3704;SDS011;1868;48.918;9.438;2023-01-06T09:29:53;0.40;;;0.40;;
3704;SDS011;1868;48.918;9.438;2023-01-06T09:32:21;1.20;;;0.60;;
3704;SDS011;1868;48.918;9.438;2023-01-06T09:34:51;1.37;;;1.27;;
3704;SDS011;1868;48.918;9.438;2023-01-06T09:37:19;1.13;;;0.50;;
3704;SDS011;1868;48.918;9.438;2023-01-06T09:39:47;0.60;;;0.60;;
3704;SDS011;1868;48.918;9.438;2023-01-06T09:42:19;0.40;;;0.40;;
3704;SDS011;1868;48.918;9.438;2023-01-06T09:45:12;1.20;;;1.10;;
3704;SDS011;1868;48.918;9.438;2023-01-06T09:47:46;0.50;;;0.50;;
3704;SDS011;1868;48.918;9.438;2023-01-06T09:50:24;0.53;;;0.40;;
3704;SDS011;1868;48.918;9.438;2023-01-06T09:53:01;0.77;;;0.47;;
3704;SDS011;1868;48.918;9.438;2023-01-06T09:55:37;0.40;;;0.40;;
3704;SDS011;1868;48.918;9.438;2023-01-06T09:58:10;1.40;;;0.50;;
3704;SDS011;1868;48.918;9.438;2023-01-06T10:00:42;0.50;;;0.37;;
3704;SDS011;1868;48.918;9.438;2023-01-06T10:03:13;0.50;;;0.50;;
3704;SDS011;1868;48.918;9.438;2023-01-06T10:05:47;1.00;;;0.73;;
3704;SDS011;1868;48.918;9.438;2023-01-06T10:08:29;0.80;;;0.43;;
3704;SDS011;1868;48.918;9.438;2023-01-06T10:11:09;1.13;;;0.60;;
3704;SDS011;1868;48.918;9.438;2023-01-06T10:13:44;0.43;;;0.43;;
3704;SDS011;1868;48.918;9.438;2023-01-06T10:16:29;0.80;;;0.40;;
3704;SDS011;1868;48.918;9.438;2023-01-06T10:19:10;0.50;;;0.40;;
3704;SDS011;1868;48.918;9.438;2023-01-06T10:21:49;4.00;;;0.70;;
3704;SDS011;1868;48.918;9.438;2023-01-06T10:24:34;0.50;;;0.30;;
3704;SDS011;1868;48.918;9.438;2023-01-06T10:27:16;0.83;;;0.43;;
3704;SDS011;1868;48.918;9.438;2023-01-06T10:29:53;0.87;;;0.57;;
3704;SDS011;1868;48.918;9.438;2023-01-06T10:32:23;0.67;;;0.30;;
3704;SDS011;1868;48.918;9.438;2023-01-06T10:34:58;0.30;;;0.23;;
3704;SDS011;1868;48.918;9.438;2023-01-06T10:37:30;0.67;;;0.50;;
3704;SDS011;1868;48.918;9.438;2023-01-06T10:40:12;0.50;;;0.30;;
3704;SDS011;1868;48.918;9.438;2023-01-06T10:42:47;0.30;;;0.30;;
3704;SDS011;1868;48.918;9.438;2023-01-06T10:45:28;0.20;;;0.20;;
3704;SDS011;1868;48.918;9.438;2023-01-06T10:48:00;0.97;;;0.30;;
3704;SDS011;1868;48.918;9.438;2023-01-06T10:50:32;0.67;;;0.30;;
3704;SDS011;1868;48.918;9.438;2023-01-06T10:53:02;0.30;;;0.20;;
3704;SDS011;1868;48.918;9.438;2023-01-06T10:55:36;0.40;;;0.40;;
3704;SDS011;1868;48.918;9.438;2023-01-06T10:58:12;0.40;;;0.40;;
3704;SDS011;1868;48.918;9.438;2023-01-06T11:00:55;1.07;;;0.30;;
3704;SDS011;1868;48.918;9.438;2023-01-06T11:03:26;0.30;;;0.30;;
3704;SDS011;1868;48.918;9.438;2023-01-06T11:06:07;5.43;;;2.30;;
3704;SDS011;1868;48.918;9.438;2023-01-06T11:08:43;3.07;;;2.07;;
3704;SDS011;1868;48.918;9.438;2023-01-06T11:11:12;3.57;;;1.67;;
3704;SDS011;1868;48.918;9.438;2023-01-06T11:13:54;1.37;;;0.40;;
3704;SDS011;1868;48.918;9.438;2023-01-06T11:16:30;0.40;;;0.40;;
3704;SDS011;1868;48.918;9.438;2023-01-06T11:19:01;0.37;;;0.30;;
3704;SDS011;1868;48.918;9.438;2023-01-06T11:21:41;0.50;;;0.30;;
3704;SDS011;1868;48.918;9.438;2023-01-06T11:24:17;0.30;;;0.30;;
3704;SDS011;1868;48.918;9.438;2023-01-06T11:26:52;0.30;;;0.30;;
3704;SDS011;1868;48.918;9.438;2023-01-06T11:29:29;0.40;;;0.40;;
3704;SDS011;1868;48.918;9.438;2023-01-06T11:32:01;0.67;;;0.20;;
3704;SDS011;1868;48.918;9.438;2023-01-06T11:34:32;0.93;;;0.30;;
3704;SDS011;1868;48.918;9.438;2023-01-06T11:37:00;0.50;;;0.50;;
3704;SDS011;1868;48.918;9.438;2023-01-06T11:39:31;0.40;;;0.40;;
3704;SDS011;1868;48.918;9.438;2023-01-06T11:42:03;0.43;;;0.40;;
3704;SDS011;1868;48.918;9.438;2023-01-06T11:44:37;0.40;;;0.40;;
3704;SDS011;1868;48.918;9.438;2023-01-06T11:47:10;0.50;;;0.40;;
3704;SDS011;1868;48.918;9.438;2023-01-06T11:49:45;0.77;;;0.40;;
3704;SDS011;1868;48.918;9.438;2023-01-06T11:52:20;1.10;;;0.40;;
3704;SDS011;1868;48.918;9.438;2023-01-06T11:54:59;1.40;;;0.50;;
3704;SDS011;1868;48.918;9.438;2023-01-06T11:57:47;2.00;;;0.50;;
3704;SDS011;1868;48.918;9.438;2023-01-06T12:00:37;0.80;;;0.80;;
3704;SDS011;1868;48.918;9.438;2023-01-06T12:03:13;1.70;;;0.40;;
3704;SDS011;1868;48.918;9.438;2023-01-06T12:05:50;0.53;;;0.53;;
3704;SDS011;1868;48.918;9.438;2023-01-06T12:08:25;0.53;;;0.50;;
3704;SDS011;1868;48.918;9.438;2023-01-06T12:11:01;0.83;;;0.50;;
3704;SDS011;1868;48.918;9.438;2023-01-06T12:13:37;1.83;;;0.40;;
3704;SDS011;1868;48.918;9.438;2023-01-06T12:16:21;0.60;;;0.50;;
3704;SDS011;1868;48.918;9.438;2023-01-06T12:18:59;0.50;;;0.50;;
3704;SDS011;1868;48.918;9.438;2023-01-06T12:21:29;0.40;;;0.40;;
3704;SDS011;1868;48.918;9.438;2023-01-06T12:23:59;0.50;;;0.50;;
3704;SDS011;1868;48.918;9.438;2023-01-06T12:26:33;0.60;;;0.60;;
3704;SDS011;1868;48.918;9.438;2023-01-06T12:29:03;0.77;;;0.60;;
3704;SDS011;1868;48.918;9.438;2023-01-06T12:31:40;0.50;;;0.50;;
3704;SDS011;1868;48.918;9.438;2023-01-06T12:34:25;8.07;;;6.20;;
3704;SDS011;1868;48.918;9.438;2023-01-06T12:37:07;1.20;;;1.10;;
3704;SDS011;1868;48.918;9.438;2023-01-06T12:39:46;0.40;;;0.40;;
3704;SDS011;1868;48.918;9.438;2023-01-06T12:42:26;0.40;;;0.40;;
3704;SDS011;1868;48.918;9.438;2023-01-06T12:45:03;0.30;;;0.30;;
3704;SDS011;1868;48.918;9.438;2023-01-06T12:47:43;0.47;;;0.40;;
3704;SDS011;1868;48.918;9.438;2023-01-06T12:50:19;0.77;;;0.40;;
3704;SDS011;1868;48.918;9.438;2023-01-06T12:53:02;0.30;;;0.30;;
3704;SDS011;1868;48.918;9.438;2023-01-06T12:55:49;0.63;;;0.40;;
3704;SDS011;1868;48.918;9.438;2023-01-06T12:58:37;0.30;;;0.30;;
3704;SDS011;1868;48.918;9.438;2023-01-06T13:01:15;1.00;;;0.60;;
3704;SDS011;1868;48.918;9.438;2023-01-06T13:04:00;0.50;;;0.50;;
3704;SDS011;1868;48.918;9.438;2023-01-06T13:07:09;0.90;;;0.90;;
3704;SDS011;1868;48.918;9.438;2023-01-06T13:09:57;0.30;;;0.30;;
3704;SDS011;1868;48.918;9.438;2023-01-06T13:12:41;0.83;;;0.40;;
3704;SDS011;1868;48.918;9.438;2023-01-06T13:15:27;0.50;;;0.47;;
3704;SDS011;1868;48.918;9.438;2023-01-06T13:18:02;0.77;;;0.70;;
3704;SDS011;1868;48.918;9.438;2023-01-06T13:20:40;0.57;;;0.57;;
3704;SDS011;1868;48.918;9.438;2023-01-06T13:23:16;0.73;;;0.70;;
3704;SDS011;1868;48.918;9.438;2023-01-06T13:26:17;0.50;;;0.50;;
3704;SDS011;1868;48.918;9.438;2023-01-06T13:29:06;2.73;;;0.70;;
3704;SDS011;1868;48.918;9.438;2023-01-06T13:31:55;1.40;;;1.17;;
3704;SDS011;1868;48.918;9.438;2023-01-06T13:34:57;1.07;;;0.90;;
3704;SDS011;1868;48.918;9.438;2023-01-06T13:37:51;1.20;;;1.10;;
3704;SDS011;1868;48.918;9.438;2023-01-06T13:40:35;0.57;;;0.57;;
3704;SDS011;1868;48.918;9.438;2023-01-06T13:43:18;1.00;;;1.00;;
3704;SDS011;1868;48.918;9.438;2023-01-06T13:45:52;1.00;;;1.00;;
3704;SDS011;1868;48.918;9.438;2023-01-06T13:48:27;1.17;;;0.83;;
3704;SDS011;1868;48.918;9.438;2023-01-06T13:50:58;0.80;;;0.47;;
3704;SDS011;1868;48.918;9.438;2023-01-06T13:53:35;0.50;;;0.50;;
3704;SDS011;1868;48.918;9.438;2023-01-06T13:56:21;0.47;;;0.47;;
3704;SDS011;1868;48.918;9.438;2023-01-06T13:59:16;0.93;;;0.67;;
3704;SDS011;1868;48.918;9.438;2023-01-06T14:01:50;2.57;;;0.60;;
3704;SDS011;1868;48.918;9.438;2023-01-06T14:07:13;0.90;;;0.90;;
3704;SDS011;1868;48.918;9.438;2023-01-06T14:09:57;2.30;;;0.43;;
3704;SDS011;1868;48.918;9.438;2023-01-06T14:12:27;0.87;;;0.70;;
3704;SDS011;1868;48.918;9.438;2023-01-06T14:14:58;1.03;;;0.73;;
3704;SDS011;1868;48.918;9.438;2023-01-06T14:17:38;0.70;;;0.70;;
3704;SDS011;1868;48.918;9.438;2023-01-06T14:20:22;0.77;;;0.77;;
3704;SDS011;1868;48.918;9.438;2023-01-06T14:22:58;0.73;;;0.73;;
3704;SDS011;1868;48.918;9.438;2023-01-06T14:25:29;0.60;;;0.60;;
3704;SDS011;1868;48.918;9.438;2023-01-06T14:34:06;1.03;;;0.70;;
3704;SDS011;1868;48.918;9.438;2023-01-06T14:36:39;1.20;;;1.10;;
3704;SDS011;1868;48.918;9.438;2023-01-06T14:39:09;0.73;;;0.73;;
3704;SDS011;1868;48.918;9.438;2023-01-06T14:41:50;0.80;;;0.80;;
3704;SDS011;1868;48.918;9.438;2023-01-06T14:44:29;1.27;;;0.97;;
3704;SDS011;1868;48.918;9.438;2023-01-06T14:47:07;2.10;;;1.20;;
3704;SDS011;1868;48.918;9.438;2023-01-06T14:49:43;1.07;;;0.90;;
3704;SDS011;1868;48.918;9.438;2023-01-06T14:52:19;1.63;;;1.00;;
3704;SDS011;1868;48.918;9.438;2023-01-06T14:54:56;0.77;;;0.77;;
3704;SDS011;1868;48.918;9.438;2023-01-06T14:57:25;0.50;;;0.50;;
3704;SDS011;1868;48.918;9.438;2023-01-06T15:00:04;0.90;;;0.90;;
3704;SDS011;1868;48.918;9.438;2023-01-06T15:02:35;0.70;;;0.70;;
3704;SDS011;1868;48.918;9.438;2023-01-06T15:05:13;0.60;;;0.50;;
3704;SDS011;1868;48.918;9.438;2023-01-06T15:07:56;0.70;;;0.70;;
3704;SDS011;1868;48.918;9.438;2023-01-06T15:10:28;0.80;;;0.80;;
3704;SDS011;1868;48.918;9.438;2023-01-06T15:13:00;1.03;;;0.70;;
3704;SDS011;1868;48.918;9.438;2023-01-06T15:15:30;1.13;;;0.80;;
3704;SDS011;1868;48.918;9.438;2023-01-06T15:17:59;1.00;;;0.93;;
3704;SDS011;1868;48.918;9.438;2023-01-06T15:20:30;1.57;;;0.90;;
3704;SDS011;1868;48.918;9.438;2023-01-06T15:23:01;1.90;;;0.70;;
3704;SDS011;1868;48.918;9.438;2023-01-06T15:25:30;0.80;;;0.80;;
3704;SDS011;1868;48.918;9.438;2023-01-06T15:28:02;0.60;;;0.60;;
3704;SDS011;1868;48.918;9.438;2023-01-06T15:30:30;0.60;;;0.57;;
3704;SDS011;1868;48.918;9.438;2023-01-06T15:33:02;0.50;;;0.50;;
3704;SDS011;1868;48.918;9.438;2023-01-06T15:35:30;0.50;;;0.50;;
3704;SDS011;1868;48.918;9.438;2023-01-06T15:38:03;0.83;;;0.83;;
3704;SDS011;1868;48.918;9.438;2023-01-06T15:40:42;0.80;;;0.80;;
3704;SDS011;1868;48.918;9.438;2023-01-06T15:43:12;0.50;;;0.50;;
3704;SDS011;1868;48.918;9.438;2023-01-06T15:45:41;0.60;;;0.50;;
3704;SDS011;1868;48.918;9.438;2023-01-06T15:48:13;0.60;;;0.60;;
3704;SDS011;1868;48.918;9.438;2023-01-06T15:50:45;0.70;;;0.70;;
3704;SDS011;1868;48.918;9.438;2023-01-06T15:53:25;0.90;;;0.90;;
3704;SDS011;1868;48.918;9.438;2023-01-06T15:56:00;0.60;;;0.60;;
3704;SDS011;1868;48.918;9.438;2023-01-06T15:58:32;1.00;;;1.00;;
3704;SDS011;1868;48.918;9.438;2023-01-06T16:01:05;0.80;;;0.80;;
3704;SDS011;1868;48.918;9.438;2023-01-06T16:03:44;2.10;;;0.80;;
3704;SDS011;1868;48.918;9.438;2023-01-06T16:06:15;0.73;;;0.73;;
3704;SDS011;1868;48.918;9.438;2023-01-06T16:12:03;2.47;;;0.53;;
3704;SDS011;1868;48.918;9.438;2023-01-06T16:14:43;11.77;;;9.17;;
3704;SDS011;1868;48.918;9.438;2023-01-06T16:17:18;47.47;;;28.00;;
3704;SDS011;1868;48.918;9.438;2023-01-06T16:19:53;3.00;;;2.40;;
3704;SDS011;1868;48.918;9.438;2023-01-06T16:22:32;1.00;;;1.00;;
3704;SDS011;1868;48.918;9.438;2023-01-06T16:25:06;1.10;;;1.00;;
3704;SDS011;1868;48.918;9.438;2023-01-06T16:27:50;1.00;;;0.90;;
3704;SDS011;1868;48.918;9.438;2023-01-06T16:30:22;1.37;;;1.27;;
3704;SDS011;1868;48.918;9.438;2023-01-06T16:32:53;0.80;;;0.80;;
3704;SDS011;1868;48.918;9.438;2023-01-06T16:35:23;0.80;;;0.80;;
3704;SDS011;1868;48.918;9.438;2023-01-06T16:37:53;2.40;;;0.60;;
3704;SDS011;1868;48.918;9.438;2023-01-06T16:40:23;0.83;;;0.73;;
3704;SDS011;1868;48.918;9.438;2023-01-06T16:42:55;0.83;;;0.83;;
3704;SDS011;1868;48.918;9.438;2023-01-06T16:45:27;1.00;;;0.90;;